sensor_id;sensor_type;location;lat;lon;timestamp;P1;durP1;ratioP1;P2;durP2;ratioP2
45344;SDS011;31078;48.304;11.896;2022-07-06T00:01:55;3.28;;;1.95;;
45344;SDS011;31078;48.304;11.896;2022-07-06T00:04:22;2.92;;;1.27;;
45344;SDS011;31078;48.304;11.896;2022-07-06T00:06:48;3.00;;;1.35;;
45344;SDS011;31078;48.304;11.896;2022-07-06T00:09:15;3.55;;;1.60;;
45344;SDS011;31078;48.304;11.896;2022-07-06T00:11:43;2.63;;;1.70;;
45344;SDS011;31078;48.304;11.896;2022-07-06T00:14:10;3.45;;;1.30;;
45344;SDS011;31078;48.304;11.896;2022-07-06T00:16:36;4.03;;;1.73;;
45344;SDS011;31078;48.304;11.896;2022-07-06T00:19:03;3.50;;;1.60;;
45344;SDS011;31078;48.304;11.896;2022-07-06T00:21:29;2.35;;;1.60;;
45344;SDS011;31078;48.304;11.896;2022-07-06T00:23:57;2.97;;;1.25;;
45344;SDS011;31078;48.304;11.896;2022-07-06T00:26:24;3.20;;;1.30;;
45344;SDS011;31078;48.304;11.896;2022-07-06T00:28:51;4.13;;;1.58;;
45344;SDS011;31078;48.304;11.896;2022-07-06T00:31:18;4.30;;;1.65;;
45344;SDS011;31078;48.304;11.896;2022-07-06T00:33:44;3.78;;;1.58;;
45344;SDS011;31078;48.304;11.896;2022-07-06T00:36:11;4.22;;;1.70;;
45344;SDS011;31078;48.304;11.896;2022-07-06T00:38:37;5.78;;;1.50;;
45344;SDS011;31078;48.304;11.896;2022-07-06T00:41:04;3.05;;;1.70;;
45344;SDS011;31078;48.304;11.896;2022-07-06T00:43:45;4.90;;;1.50;;
45344;SDS011;31078;48.304;11.896;2022-07-06T00:46:16;3.05;;;1.38;;
45344;SDS011;31078;48.304;11.896;2022-07-06T00:48:42;2.97;;;1.70;;
45344;SDS011;31078;48.304;11.896;2022-07-06T00:51:09;3.25;;;1.40;;
45344;SDS011;31078;48.304;11.896;2022-07-06T00:53:37;1.98;;;1.40;;
45344;SDS011;31078;48.304;11.896;2022-07-06T00:56:03;3.28;;;1.40;;
45344;SDS011;31078;48.304;11.896;2022-07-06T00:58:30;4.88;;;1.45;;
45344;SDS011;31078;48.304;11.896;2022-07-06T01:00:57;3.20;;;1.60;;
45344;SDS011;31078;48.304;11.896;2022-07-06T01:03:24;3.60;;;1.65;;
45344;SDS011;31078;48.304;11.896;2022-07-06T01:05:51;6.13;;;1.75;;
45344;SDS011;31078;48.304;11.896;2022-07-06T01:08:17;4.63;;;1.75;;
45344;SDS011;31078;48.304;11.896;2022-07-06T01:10:44;3.35;;;1.70;;
45344;SDS011;31078;48.304;11.896;2022-07-06T01:13:14;2.83;;;1.65;;
45344;SDS011;31078;48.304;11.896;2022-07-06T01:15:40;5.70;;;1.67;;
45344;SDS011;31078;48.304;11.896;2022-07-06T01:18:08;6.82;;;2.03;;
45344;SDS011;31078;48.304;11.896;2022-07-06T01:20:36;3.67;;;1.73;;
45344;SDS011;31078;48.304;11.896;2022-07-06T01:23:03;3.30;;;1.67;;
45344;SDS011;31078;48.304;11.896;2022-07-06T01:25:29;2.95;;;1.40;;
45344;SDS011;31078;48.304;11.896;2022-07-06T01:27:57;3.78;;;1.70;;
45344;SDS011;31078;48.304;11.896;2022-07-06T01:30:23;4.15;;;1.70;;
45344;SDS011;31078;48.304;11.896;2022-07-06T01:32:50;4.03;;;1.67;;
45344;SDS011;31078;48.304;11.896;2022-07-06T01:35:17;3.50;;;1.95;;
45344;SDS011;31078;48.304;11.896;2022-07-06T01:37:45;3.58;;;1.98;;
45344;SDS011;31078;48.304;11.896;2022-07-06T01:40:12;4.30;;;1.85;;
45344;SDS011;31078;48.304;11.896;2022-07-06T01:42:38;5.18;;;1.83;;
45344;SDS011;31078;48.304;11.896;2022-07-06T01:45:05;2.92;;;1.90;;
45344;SDS011;31078;48.304;11.896;2022-07-06T01:47:33;2.20;;;1.70;;
45344;SDS011;31078;48.304;11.896;2022-07-06T01:50:00;3.08;;;1.60;;
45344;SDS011;31078;48.304;11.896;2022-07-06T01:52:27;3.72;;;1.92;;
45344;SDS011;31078;48.304;11.896;2022-07-06T01:54:55;3.33;;;1.85;;
45344;SDS011;31078;48.304;11.896;2022-07-06T01:57:22;8.15;;;2.63;;
45344;SDS011;31078;48.304;11.896;2022-07-06T01:59:48;4.22;;;2.03;;
45344;SDS011;31078;48.304;11.896;2022-07-06T02:02:17;2.90;;;1.98;;
45344;SDS011;31078;48.304;11.896;2022-07-06T02:04:44;5.40;;;2.63;;
45344;SDS011;31078;48.304;11.896;2022-07-06T02:07:10;4.70;;;2.40;;
45344;SDS011;31078;48.304;11.896;2022-07-06T02:09:37;5.15;;;2.33;;
45344;SDS011;31078;48.304;11.896;2022-07-06T02:12:05;5.13;;;2.28;;
45344;SDS011;31078;48.304;11.896;2022-07-06T02:14:32;3.05;;;2.05;;
45344;SDS011;31078;48.304;11.896;2022-07-06T02:16:58;5.22;;;2.38;;
45344;SDS011;31078;48.304;11.896;2022-07-06T02:19:25;4.60;;;1.95;;
45344;SDS011;31078;48.304;11.896;2022-07-06T02:21:51;6.47;;;2.38;;
45344;SDS011;31078;48.304;11.896;2022-07-06T02:24:17;4.65;;;2.40;;
45344;SDS011;31078;48.304;11.896;2022-07-06T02:26:44;8.40;;;2.30;;
45344;SDS011;31078;48.304;11.896;2022-07-06T02:29:12;5.85;;;2.72;;
45344;SDS011;31078;48.304;11.896;2022-07-06T02:31:38;3.35;;;2.55;;
45344;SDS011;31078;48.304;11.896;2022-07-06T02:34:05;3.80;;;2.60;;
45344;SDS011;31078;48.304;11.896;2022-07-06T02:36:31;3.55;;;2.40;;
45344;SDS011;31078;48.304;11.896;2022-07-06T02:38:58;5.35;;;2.55;;
45344;SDS011;31078;48.304;11.896;2022-07-06T02:41:25;4.30;;;2.80;;
45344;SDS011;31078;48.304;11.896;2022-07-06T02:43:55;4.32;;;2.72;;
45344;SDS011;31078;48.304;11.896;2022-07-06T02:46:23;2.67;;;2.25;;
45344;SDS011;31078;48.304;11.896;2022-07-06T02:48:49;4.32;;;2.65;;
45344;SDS011;31078;48.304;11.896;2022-07-06T02:51:16;6.47;;;3.25;;
45344;SDS011;31078;48.304;11.896;2022-07-06T02:53:42;3.50;;;2.40;;
45344;SDS011;31078;48.304;11.896;2022-07-06T02:56:09;5.68;;;3.45;;
45344;SDS011;31078;48.304;11.896;2022-07-06T02:58:35;6.95;;;2.47;;
45344;SDS011;31078;48.304;11.896;2022-07-06T03:01:02;4.40;;;2.53;;
45344;SDS011;31078;48.304;11.896;2022-07-06T03:03:30;3.28;;;2.30;;
45344;SDS011;31078;48.304;11.896;2022-07-06T03:05:57;6.22;;;2.58;;
45344;SDS011;31078;48.304;11.896;2022-07-06T03:08:24;4.40;;;2.60;;
45344;SDS011;31078;48.304;11.896;2022-07-06T03:10:51;5.60;;;2.85;;
45344;SDS011;31078;48.304;11.896;2022-07-06T03:13:17;4.30;;;2.45;;
45344;SDS011;31078;48.304;11.896;2022-07-06T03:15:44;5.20;;;2.58;;
45344;SDS011;31078;48.304;11.896;2022-07-06T03:18:10;3.40;;;2.47;;
45344;SDS011;31078;48.304;11.896;2022-07-06T03:20:38;3.83;;;2.40;;
45344;SDS011;31078;48.304;11.896;2022-07-06T03:23:04;3.58;;;2.28;;
45344;SDS011;31078;48.304;11.896;2022-07-06T03:25:31;4.80;;;2.28;;
45344;SDS011;31078;48.304;11.896;2022-07-06T03:27:58;8.02;;;2.83;;
45344;SDS011;31078;48.304;11.896;2022-07-06T03:30:25;6.47;;;2.60;;
45344;SDS011;31078;48.304;11.896;2022-07-06T03:32:51;5.20;;;2.47;;
45344;SDS011;31078;48.304;11.896;2022-07-06T03:35:17;3.17;;;2.17;;
45344;SDS011;31078;48.304;11.896;2022-07-06T03:37:45;6.25;;;2.30;;
45344;SDS011;31078;48.304;11.896;2022-07-06T03:40:12;6.32;;;2.58;;
45344;SDS011;31078;48.304;11.896;2022-07-06T03:42:38;6.93;;;2.45;;
45344;SDS011;31078;48.304;11.896;2022-07-06T03:45:05;4.18;;;2.45;;
45344;SDS011;31078;48.304;11.896;2022-07-06T03:47:33;4.18;;;2.40;;
45344;SDS011;31078;48.304;11.896;2022-07-06T03:49:59;5.50;;;2.13;;
45344;SDS011;31078;48.304;11.896;2022-07-06T03:52:26;3.72;;;2.58;;
45344;SDS011;31078;48.304;11.896;2022-07-06T03:54:54;3.95;;;2.28;;
45344;SDS011;31078;48.304;11.896;2022-07-06T03:57:22;3.63;;;2.45;;
45344;SDS011;31078;48.304;11.896;2022-07-06T03:59:48;6.57;;;2.40;;
45344;SDS011;31078;48.304;11.896;2022-07-06T04:02:15;4.07;;;2.40;;
45344;SDS011;31078;48.304;11.896;2022-07-06T04:04:41;3.88;;;2.35;;
45344;SDS011;31078;48.304;11.896;2022-07-06T04:07:07;4.68;;;2.10;;
45344;SDS011;31078;48.304;11.896;2022-07-06T04:09:34;3.50;;;2.33;;
45344;SDS011;31078;48.304;11.896;2022-07-06T04:12:02;2.75;;;2.20;;
45344;SDS011;31078;48.304;11.896;2022-07-06T04:14:29;3.70;;;2.35;;
45344;SDS011;31078;48.304;11.896;2022-07-06T04:16:55;3.67;;;2.50;;
45344;SDS011;31078;48.304;11.896;2022-07-06T04:19:21;3.58;;;2.10;;
45344;SDS011;31078;48.304;11.896;2022-07-06T04:21:48;3.40;;;2.35;;
45344;SDS011;31078;48.304;11.896;2022-07-06T04:24:14;3.58;;;2.33;;
45344;SDS011;31078;48.304;11.896;2022-07-06T04:26:41;7.55;;;2.30;;
45344;SDS011;31078;48.304;11.896;2022-07-06T04:29:09;6.35;;;2.72;;
45344;SDS011;31078;48.304;11.896;2022-07-06T04:31:35;4.63;;;2.40;;
45344;SDS011;31078;48.304;11.896;2022-07-06T04:34:01;6.15;;;2.47;;
45344;SDS011;31078;48.304;11.896;2022-07-06T04:36:28;3.70;;;2.30;;
45344;SDS011;31078;48.304;11.896;2022-07-06T04:38:54;4.50;;;2.50;;
45344;SDS011;31078;48.304;11.896;2022-07-06T04:41:21;5.30;;;2.70;;
45344;SDS011;31078;48.304;11.896;2022-07-06T04:43:47;3.60;;;2.60;;
45344;SDS011;31078;48.304;11.896;2022-07-06T04:46:15;5.60;;;2.70;;
45344;SDS011;31078;48.304;11.896;2022-07-06T04:48:42;2.92;;;2.20;;
45344;SDS011;31078;48.304;11.896;2022-07-06T04:51:08;6.38;;;2.72;;
45344;SDS011;31078;48.304;11.896;2022-07-06T04:53:35;7.32;;;2.45;;
45344;SDS011;31078;48.304;11.896;2022-07-06T04:56:02;3.85;;;2.30;;
45344;SDS011;31078;48.304;11.896;2022-07-06T04:58:29;3.03;;;2.00;;
45344;SDS011;31078;48.304;11.896;2022-07-06T05:00:56;5.90;;;2.40;;
45344;SDS011;31078;48.304;11.896;2022-07-06T05:03:24;3.80;;;2.45;;
45344;SDS011;31078;48.304;11.896;2022-07-06T05:05:50;4.95;;;2.28;;
45344;SDS011;31078;48.304;11.896;2022-07-06T05:08:17;3.63;;;2.35;;
45344;SDS011;31078;48.304;11.896;2022-07-06T05:10:43;5.47;;;2.45;;
45344;SDS011;31078;48.304;11.896;2022-07-06T05:13:09;6.05;;;2.20;;
45344;SDS011;31078;48.304;11.896;2022-07-06T05:15:36;8.65;;;2.38;;
45344;SDS011;31078;48.304;11.896;2022-07-06T05:18:02;3.25;;;2.30;;
45344;SDS011;31078;48.304;11.896;2022-07-06T05:20:30;6.75;;;2.55;;
45344;SDS011;31078;48.304;11.896;2022-07-06T05:22:57;5.80;;;2.58;;
45344;SDS011;31078;48.304;11.896;2022-07-06T05:25:23;3.47;;;2.00;;
45344;SDS011;31078;48.304;11.896;2022-07-06T05:27:50;4.05;;;2.00;;
45344;SDS011;31078;48.304;11.896;2022-07-06T05:30:16;3.85;;;1.95;;
45344;SDS011;31078;48.304;11.896;2022-07-06T05:32:43;2.30;;;1.70;;
45344;SDS011;31078;48.304;11.896;2022-07-06T05:35:09;3.03;;;1.80;;
45344;SDS011;31078;48.304;11.896;2022-07-06T05:37:37;3.10;;;2.20;;
45344;SDS011;31078;48.304;11.896;2022-07-06T05:40:04;5.50;;;2.30;;
45344;SDS011;31078;48.304;11.896;2022-07-06T05:42:31;4.30;;;1.85;;
45344;SDS011;31078;48.304;11.896;2022-07-06T05:44:58;4.10;;;1.70;;
45344;SDS011;31078;48.304;11.896;2022-07-06T05:47:24;3.55;;;1.92;;
45344;SDS011;31078;48.304;11.896;2022-07-06T05:50:08;2.25;;;1.67;;
45344;SDS011;31078;48.304;11.896;2022-07-06T05:52:39;5.82;;;1.95;;
45344;SDS011;31078;48.304;11.896;2022-07-06T05:55:07;3.05;;;2.47;;
45344;SDS011;31078;48.304;11.896;2022-07-06T05:57:34;4.63;;;1.90;;
45344;SDS011;31078;48.304;11.896;2022-07-06T06:00:00;3.58;;;2.13;;
45344;SDS011;31078;48.304;11.896;2022-07-06T06:02:35;6.47;;;2.15;;
45344;SDS011;31078;48.304;11.896;2022-07-06T06:05:02;4.22;;;2.30;;
45344;SDS011;31078;48.304;11.896;2022-07-06T06:07:29;6.25;;;2.53;;
45344;SDS011;31078;48.304;11.896;2022-07-06T06:09:56;3.38;;;2.20;;
45344;SDS011;31078;48.304;11.896;2022-07-06T06:12:23;3.20;;;2.28;;
45344;SDS011;31078;48.304;11.896;2022-07-06T06:14:49;4.55;;;2.30;;
45344;SDS011;31078;48.304;11.896;2022-07-06T06:17:16;3.60;;;2.20;;
45344;SDS011;31078;48.304;11.896;2022-07-06T06:19:42;7.10;;;2.40;;
45344;SDS011;31078;48.304;11.896;2022-07-06T06:22:09;4.57;;;2.30;;
45344;SDS011;31078;48.304;11.896;2022-07-06T06:24:35;3.80;;;2.38;;
45344;SDS011;31078;48.304;11.896;2022-07-06T06:27:03;2.83;;;2.25;;
45344;SDS011;31078;48.304;11.896;2022-07-06T06:29:29;4.18;;;2.55;;
45344;SDS011;31078;48.304;11.896;2022-07-06T06:31:56;4.10;;;2.60;;
45344;SDS011;31078;48.304;11.896;2022-07-06T06:34:22;2.58;;;2.38;;
45344;SDS011;31078;48.304;11.896;2022-07-06T06:36:49;14.93;;;3.00;;
45344;SDS011;31078;48.304;11.896;2022-07-06T06:39:15;3.45;;;2.20;;
45344;SDS011;31078;48.304;11.896;2022-07-06T06:41:42;7.00;;;2.47;;
45344;SDS011;31078;48.304;11.896;2022-07-06T06:44:09;3.35;;;2.10;;
45344;SDS011;31078;48.304;11.896;2022-07-06T06:46:36;5.43;;;2.30;;
45344;SDS011;31078;48.304;11.896;2022-07-06T06:49:03;7.68;;;2.45;;
45344;SDS011;31078;48.304;11.896;2022-07-06T06:51:30;4.25;;;2.40;;
45344;SDS011;31078;48.304;11.896;2022-07-06T06:53:57;5.07;;;2.17;;
45344;SDS011;31078;48.304;11.896;2022-07-06T06:56:23;4.05;;;2.30;;
45344;SDS011;31078;48.304;11.896;2022-07-06T06:58:50;6.38;;;2.20;;
45344;SDS011;31078;48.304;11.896;2022-07-06T07:01:17;4.38;;;2.35;;
45344;SDS011;31078;48.304;11.896;2022-07-06T07:03:44;5.95;;;2.60;;
45344;SDS011;31078;48.304;11.896;2022-07-06T07:06:10;3.17;;;2.08;;
45344;SDS011;31078;48.304;11.896;2022-07-06T07:08:37;5.25;;;2.28;;
45344;SDS011;31078;48.304;11.896;2022-07-06T07:11:03;3.55;;;2.25;;
45344;SDS011;31078;48.304;11.896;2022-07-06T07:13:30;3.90;;;2.45;;
45344;SDS011;31078;48.304;11.896;2022-07-06T07:15:56;4.75;;;2.30;;
45344;SDS011;31078;48.304;11.896;2022-07-06T07:18:24;3.08;;;1.83;;
45344;SDS011;31078;48.304;11.896;2022-07-06T07:20:50;4.10;;;2.20;;
45344;SDS011;31078;48.304;11.896;2022-07-06T07:23:17;3.88;;;2.35;;
45344;SDS011;31078;48.304;11.896;2022-07-06T07:25:44;8.15;;;2.60;;
45344;SDS011;31078;48.304;11.896;2022-07-06T07:28:10;4.55;;;2.38;;
45344;SDS011;31078;48.304;11.896;2022-07-06T07:30:37;5.32;;;2.40;;
45344;SDS011;31078;48.304;11.896;2022-07-06T07:33:03;4.80;;;2.28;;
45344;SDS011;31078;48.304;11.896;2022-07-06T07:41:21;4.63;;;2.50;;
45344;SDS011;31078;48.304;11.896;2022-07-06T07:43:48;4.65;;;2.55;;
45344;SDS011;31078;48.304;11.896;2022-07-06T07:46:14;3.88;;;2.50;;
45344;SDS011;31078;48.304;11.896;2022-07-06T07:48:43;8.88;;;2.75;;
45344;SDS011;31078;48.304;11.896;2022-07-06T07:51:10;4.38;;;2.70;;
45344;SDS011;31078;48.304;11.896;2022-07-06T07:53:36;3.55;;;2.40;;
45344;SDS011;31078;48.304;11.896;2022-07-06T07:56:03;4.60;;;2.65;;
45344;SDS011;31078;48.304;11.896;2022-07-06T07:58:31;8.57;;;2.60;;
45344;SDS011;31078;48.304;11.896;2022-07-06T08:00:57;4.90;;;2.70;;
45344;SDS011;31078;48.304;11.896;2022-07-06T08:03:24;7.70;;;2.80;;
45344;SDS011;31078;48.304;11.896;2022-07-06T08:05:50;5.70;;;2.70;;
45344;SDS011;31078;48.304;11.896;2022-07-06T08:08:17;6.30;;;3.03;;
45344;SDS011;31078;48.304;11.896;2022-07-06T08:10:43;3.90;;;2.50;;
45344;SDS011;31078;48.304;11.896;2022-07-06T08:13:10;7.85;;;2.60;;
45344;SDS011;31078;48.304;11.896;2022-07-06T08:15:38;5.18;;;2.60;;
45344;SDS011;31078;48.304;11.896;2022-07-06T08:18:04;4.75;;;2.10;;
45344;SDS011;31078;48.304;11.896;2022-07-06T08:20:31;6.68;;;2.60;;
45344;SDS011;31078;48.304;11.896;2022-07-06T08:22:57;7.85;;;3.08;;
45344;SDS011;31078;48.304;11.896;2022-07-06T08:25:24;5.00;;;2.30;;
45344;SDS011;31078;48.304;11.896;2022-07-06T08:27:50;3.75;;;2.30;;
45344;SDS011;31078;48.304;11.896;2022-07-06T08:30:16;3.78;;;2.30;;
45344;SDS011;31078;48.304;11.896;2022-07-06T08:32:44;4.50;;;2.25;;
45344;SDS011;31078;48.304;11.896;2022-07-06T08:35:11;4.80;;;2.10;;
45344;SDS011;31078;48.304;11.896;2022-07-06T08:37:38;10.50;;;2.65;;
45344;SDS011;31078;48.304;11.896;2022-07-06T08:40:05;3.30;;;2.13;;
45344;SDS011;31078;48.304;11.896;2022-07-06T08:42:33;5.65;;;2.50;;
45344;SDS011;31078;48.304;11.896;2022-07-06T08:45:01;7.07;;;2.70;;
45344;SDS011;31078;48.304;11.896;2022-07-06T08:47:29;7.82;;;2.55;;
45344;SDS011;31078;48.304;11.896;2022-07-06T08:49:57;4.90;;;2.40;;
45344;SDS011;31078;48.304;11.896;2022-07-06T08:52:24;5.43;;;2.40;;
45344;SDS011;31078;48.304;11.896;2022-07-06T08:54:50;3.38;;;2.17;;
45344;SDS011;31078;48.304;11.896;2022-07-06T08:57:17;5.82;;;2.65;;
45344;SDS011;31078;48.304;11.896;2022-07-06T08:59:44;3.92;;;2.20;;
45344;SDS011;31078;48.304;11.896;2022-07-06T09:02:11;5.20;;;2.08;;
45344;SDS011;31078;48.304;11.896;2022-07-06T09:04:39;4.07;;;2.30;;
45344;SDS011;31078;48.304;11.896;2022-07-06T09:07:10;5.40;;;2.50;;
45344;SDS011;31078;48.304;11.896;2022-07-06T09:09:38;3.30;;;2.30;;
45344;SDS011;31078;48.304;11.896;2022-07-06T09:12:08;5.45;;;2.75;;
45344;SDS011;31078;48.304;11.896;2022-07-06T09:14:38;6.63;;;2.40;;
45344;SDS011;31078;48.304;11.896;2022-07-06T09:17:05;3.95;;;2.65;;
45344;SDS011;31078;48.304;11.896;2022-07-06T09:19:33;5.70;;;2.80;;
45344;SDS011;31078;48.304;11.896;2022-07-06T09:22:01;8.32;;;2.47;;
45344;SDS011;31078;48.304;11.896;2022-07-06T09:24:29;5.05;;;2.28;;
45344;SDS011;31078;48.304;11.896;2022-07-06T09:26:56;5.85;;;2.72;;
45344;SDS011;31078;48.304;11.896;2022-07-06T09:29:26;5.32;;;3.03;;
45344;SDS011;31078;48.304;11.896;2022-07-06T09:31:57;4.30;;;2.10;;
45344;SDS011;31078;48.304;11.896;2022-07-06T09:34:25;5.57;;;2.47;;
45344;SDS011;31078;48.304;11.896;2022-07-06T09:39:42;3.75;;;2.17;;
45344;SDS011;31078;48.304;11.896;2022-07-06T09:42:09;4.55;;;2.25;;
45344;SDS011;31078;48.304;11.896;2022-07-06T09:44:37;7.75;;;2.70;;
45344;SDS011;31078;48.304;11.896;2022-07-06T09:47:05;7.15;;;2.20;;
45344;SDS011;31078;48.304;11.896;2022-07-06T09:49:33;5.43;;;2.70;;
45344;SDS011;31078;48.304;11.896;2022-07-06T09:52:01;5.85;;;2.30;;
45344;SDS011;31078;48.304;11.896;2022-07-06T09:54:28;4.40;;;2.05;;
45344;SDS011;31078;48.304;11.896;2022-07-06T09:56:56;3.28;;;1.95;;
45344;SDS011;31078;48.304;11.896;2022-07-06T09:59:24;6.47;;;2.53;;
45344;SDS011;31078;48.304;11.896;2022-07-06T10:01:52;3.45;;;2.38;;
45344;SDS011;31078;48.304;11.896;2022-07-06T10:04:21;6.32;;;2.50;;
45344;SDS011;31078;48.304;11.896;2022-07-06T10:06:49;5.20;;;2.40;;
45344;SDS011;31078;48.304;11.896;2022-07-06T10:09:18;5.63;;;2.50;;
45344;SDS011;31078;48.304;11.896;2022-07-06T10:11:47;8.43;;;2.97;;
45344;SDS011;31078;48.304;11.896;2022-07-06T10:14:18;3.72;;;2.45;;
45344;SDS011;31078;48.304;11.896;2022-07-06T10:16:47;3.58;;;2.08;;
45344;SDS011;31078;48.304;11.896;2022-07-06T10:19:15;7.07;;;2.20;;
45344;SDS011;31078;48.304;11.896;2022-07-06T10:21:43;7.50;;;2.20;;
45344;SDS011;31078;48.304;11.896;2022-07-06T10:24:10;5.65;;;1.80;;
45344;SDS011;31078;48.304;11.896;2022-07-06T10:26:38;4.28;;;2.35;;
45344;SDS011;31078;48.304;11.896;2022-07-06T10:29:05;2.95;;;1.98;;
45344;SDS011;31078;48.304;11.896;2022-07-06T10:31:34;5.78;;;2.00;;
45344;SDS011;31078;48.304;11.896;2022-07-06T10:34:04;3.90;;;2.40;;
45344;SDS011;31078;48.304;11.896;2022-07-06T10:36:36;3.42;;;1.90;;
45344;SDS011;31078;48.304;11.896;2022-07-06T10:39:03;4.90;;;2.03;;
45344;SDS011;31078;48.304;11.896;2022-07-06T10:41:49;4.35;;;2.50;;
45344;SDS011;31078;48.304;11.896;2022-07-06T10:44:16;4.10;;;1.98;;
45344;SDS011;31078;48.304;11.896;2022-07-06T10:46:52;6.53;;;2.17;;
45344;SDS011;31078;48.304;11.896;2022-07-06T10:49:20;4.18;;;1.65;;
45344;SDS011;31078;48.304;11.896;2022-07-06T10:51:47;6.40;;;2.15;;
45344;SDS011;31078;48.304;11.896;2022-07-06T10:54:15;5.35;;;2.40;;
45344;SDS011;31078;48.304;11.896;2022-07-06T10:56:43;2.88;;;2.13;;
45344;SDS011;31078;48.304;11.896;2022-07-06T10:59:11;3.92;;;1.98;;
45344;SDS011;31078;48.304;11.896;2022-07-06T11:01:38;4.32;;;1.73;;
45344;SDS011;31078;48.304;11.896;2022-07-06T11:04:07;4.05;;;1.95;;
45344;SDS011;31078;48.304;11.896;2022-07-06T11:06:35;3.63;;;2.08;;
45344;SDS011;31078;48.304;11.896;2022-07-06T11:09:03;4.28;;;1.95;;
45344;SDS011;31078;48.304;11.896;2022-07-06T11:14:14;3.85;;;1.90;;
45344;SDS011;31078;48.304;11.896;2022-07-06T11:19:28;4.40;;;2.10;;
45344;SDS011;31078;48.304;11.896;2022-07-06T11:21:56;5.25;;;2.00;;
45344;SDS011;31078;48.304;11.896;2022-07-06T11:24:25;3.50;;;1.95;;
45344;SDS011;31078;48.304;11.896;2022-07-06T11:26:53;3.65;;;1.70;;
45344;SDS011;31078;48.304;11.896;2022-07-06T11:29:21;4.70;;;1.95;;
45344;SDS011;31078;48.304;11.896;2022-07-06T11:31:49;3.15;;;1.65;;
45344;SDS011;31078;48.304;11.896;2022-07-06T11:34:18;6.90;;;1.83;;
45344;SDS011;31078;48.304;11.896;2022-07-06T11:36:46;4.28;;;1.90;;
45344;SDS011;31078;48.304;11.896;2022-07-06T11:39:15;2.75;;;2.00;;
45344;SDS011;31078;48.304;11.896;2022-07-06T11:41:41;5.82;;;1.90;;
45344;SDS011;31078;48.304;11.896;2022-07-06T11:44:08;3.85;;;1.58;;
45344;SDS011;31078;48.304;11.896;2022-07-06T11:46:35;2.60;;;2.00;;
45344;SDS011;31078;48.304;11.896;2022-07-06T11:49:02;3.00;;;1.50;;
45344;SDS011;31078;48.304;11.896;2022-07-06T11:51:31;3.67;;;1.90;;
45344;SDS011;31078;48.304;11.896;2022-07-06T11:54:01;4.03;;;1.73;;
45344;SDS011;31078;48.304;11.896;2022-07-06T11:56:34;3.83;;;1.67;;
45344;SDS011;31078;48.304;11.896;2022-07-06T11:59:01;3.00;;;1.67;;
45344;SDS011;31078;48.304;11.896;2022-07-06T12:01:28;5.72;;;1.90;;
45344;SDS011;31078;48.304;11.896;2022-07-06T12:03:57;3.63;;;1.70;;
45344;SDS011;31078;48.304;11.896;2022-07-06T12:06:29;2.80;;;1.60;;
45344;SDS011;31078;48.304;11.896;2022-07-06T12:08:56;3.40;;;1.70;;
45344;SDS011;31078;48.304;11.896;2022-07-06T12:11:25;2.28;;;1.80;;
45344;SDS011;31078;48.304;11.896;2022-07-06T12:13:54;3.20;;;1.77;;
45344;SDS011;31078;48.304;11.896;2022-07-06T12:16:28;5.70;;;1.83;;
45344;SDS011;31078;48.304;11.896;2022-07-06T12:18:55;3.83;;;1.73;;
45344;SDS011;31078;48.304;11.896;2022-07-06T12:21:22;6.18;;;1.70;;
45344;SDS011;31078;48.304;11.896;2022-07-06T12:23:49;3.20;;;1.95;;
45344;SDS011;31078;48.304;11.896;2022-07-06T12:26:17;3.88;;;2.10;;
45344;SDS011;31078;48.304;11.896;2022-07-06T12:28:46;5.88;;;2.50;;
45344;SDS011;31078;48.304;11.896;2022-07-06T12:31:31;3.20;;;1.73;;
45344;SDS011;31078;48.304;11.896;2022-07-06T12:33:59;4.97;;;2.10;;
45344;SDS011;31078;48.304;11.896;2022-07-06T12:36:25;3.72;;;1.92;;
45344;SDS011;31078;48.304;11.896;2022-07-06T12:38:52;2.45;;;1.60;;
45344;SDS011;31078;48.304;11.896;2022-07-06T12:41:32;2.60;;;1.67;;
45344;SDS011;31078;48.304;11.896;2022-07-06T12:44:02;8.52;;;3.60;;
45344;SDS011;31078;48.304;11.896;2022-07-06T12:46:31;2.28;;;1.85;;
45344;SDS011;31078;48.304;11.896;2022-07-06T12:48:59;1.90;;;1.60;;
45344;SDS011;31078;48.304;11.896;2022-07-06T12:54:15;5.85;;;1.83;;
45344;SDS011;31078;48.304;11.896;2022-07-06T12:56:56;5.82;;;1.40;;
45344;SDS011;31078;48.304;11.896;2022-07-06T12:59:27;4.85;;;1.42;;
45344;SDS011;31078;48.304;11.896;2022-07-06T13:01:56;3.47;;;1.52;;
45344;SDS011;31078;48.304;11.896;2022-07-06T13:04:23;4.10;;;1.70;;
45344;SDS011;31078;48.304;11.896;2022-07-06T13:06:55;6.30;;;2.08;;
45344;SDS011;31078;48.304;11.896;2022-07-06T13:09:24;5.75;;;1.90;;
45344;SDS011;31078;48.304;11.896;2022-07-06T13:11:51;8.43;;;2.05;;
45344;SDS011;31078;48.304;11.896;2022-07-06T13:14:18;6.45;;;1.67;;
45344;SDS011;31078;48.304;11.896;2022-07-06T13:16:46;2.58;;;1.50;;
45344;SDS011;31078;48.304;11.896;2022-07-06T13:19:14;3.20;;;1.73;;
45344;SDS011;31078;48.304;11.896;2022-07-06T13:21:41;2.30;;;1.40;;
45344;SDS011;31078;48.304;11.896;2022-07-06T13:24:09;2.25;;;1.38;;
45344;SDS011;31078;48.304;11.896;2022-07-06T13:26:36;2.95;;;1.30;;
45344;SDS011;31078;48.304;11.896;2022-07-06T13:29:03;3.83;;;1.55;;
45344;SDS011;31078;48.304;11.896;2022-07-06T13:34:16;3.95;;;1.85;;
45344;SDS011;31078;48.304;11.896;2022-07-06T13:36:45;1.85;;;1.40;;
45344;SDS011;31078;48.304;11.896;2022-07-06T13:39:11;3.53;;;1.45;;
45344;SDS011;31078;48.304;11.896;2022-07-06T13:41:38;4.97;;;2.08;;
45344;SDS011;31078;48.304;11.896;2022-07-06T13:44:05;13.75;;;1.80;;
45344;SDS011;31078;48.304;11.896;2022-07-06T13:46:32;5.68;;;2.08;;
45344;SDS011;31078;48.304;11.896;2022-07-06T13:48:59;5.03;;;1.60;;
45344;SDS011;31078;48.304;11.896;2022-07-06T13:51:27;4.53;;;1.50;;
45344;SDS011;31078;48.304;11.896;2022-07-06T13:53:54;4.03;;;1.65;;
45344;SDS011;31078;48.304;11.896;2022-07-06T13:56:21;2.55;;;1.38;;
45344;SDS011;31078;48.304;11.896;2022-07-06T13:58:47;6.03;;;1.48;;
45344;SDS011;31078;48.304;11.896;2022-07-06T14:01:23;5.38;;;1.65;;
45344;SDS011;31078;48.304;11.896;2022-07-06T14:04:18;4.82;;;1.42;;
45344;SDS011;31078;48.304;11.896;2022-07-06T14:06:47;2.80;;;1.33;;
45344;SDS011;31078;48.304;11.896;2022-07-06T14:09:22;2.40;;;1.50;;
45344;SDS011;31078;48.304;11.896;2022-07-06T14:11:51;3.72;;;1.30;;
45344;SDS011;31078;48.304;11.896;2022-07-06T14:14:17;3.58;;;1.27;;
45344;SDS011;31078;48.304;11.896;2022-07-06T14:16:47;1.98;;;1.35;;
45344;SDS011;31078;48.304;11.896;2022-07-06T14:19:14;9.82;;;2.30;;
45344;SDS011;31078;48.304;11.896;2022-07-06T14:21:45;4.13;;;1.50;;
45344;SDS011;31078;48.304;11.896;2022-07-06T14:24:15;3.03;;;1.42;;
45344;SDS011;31078;48.304;11.896;2022-07-06T14:26:45;3.33;;;1.40;;
45344;SDS011;31078;48.304;11.896;2022-07-06T14:29:11;5.30;;;1.75;;
45344;SDS011;31078;48.304;11.896;2022-07-06T14:31:38;1.85;;;1.30;;
45344;SDS011;31078;48.304;11.896;2022-07-06T14:34:04;4.22;;;1.50;;
45344;SDS011;31078;48.304;11.896;2022-07-06T14:36:30;3.95;;;1.38;;
45344;SDS011;31078;48.304;11.896;2022-07-06T14:38:58;4.82;;;1.60;;
45344;SDS011;31078;48.304;11.896;2022-07-06T14:41:28;4.25;;;1.33;;
45344;SDS011;31078;48.304;11.896;2022-07-06T14:43:55;1.95;;;1.27;;
45344;SDS011;31078;48.304;11.896;2022-07-06T14:46:22;3.92;;;1.20;;
45344;SDS011;31078;48.304;11.896;2022-07-06T14:48:48;2.75;;;1.30;;
45344;SDS011;31078;48.304;11.896;2022-07-06T14:51:15;9.18;;;1.55;;
45344;SDS011;31078;48.304;11.896;2022-07-06T14:53:41;3.88;;;1.30;;
45344;SDS011;31078;48.304;11.896;2022-07-06T14:56:08;5.68;;;1.90;;